sensor_id;sensor_type;location;lat;lon;timestamp;temperature;humidity
15609;DHT22;64278;45.642;13.756;2023-03-24T00:01:56;23.20;59.70
15609;DHT22;64278;45.642;13.756;2023-03-24T00:04:21;23.20;59.70
15609;DHT22;64278;45.642;13.756;2023-03-24T00:06:49;23.20;59.80
15609;DHT22;64278;45.642;13.756;2023-03-24T00:09:15;23.20;59.80
15609;DHT22;64278;45.642;13.756;2023-03-24T00:11:41;23.20;59.90
15609;DHT22;64278;45.642;13.756;2023-03-24T00:14:08;23.20;59.90
15609;DHT22;64278;45.642;13.756;2023-03-24T00:16:37;23.20;59.80
15609;DHT22;64278;45.642;13.756;2023-03-24T00:19:10;23.20;59.90
15609;DHT22;64278;45.642;13.756;2023-03-24T00:21:38;23.20;59.90
15609;DHT22;64278;45.642;13.756;2023-03-24T00:24:05;23.20;59.90
15609;DHT22;64278;45.642;13.756;2023-03-24T00:26:33;23.20;59.90
15609;DHT22;64278;45.642;13.756;2023-03-24T00:28:59;23.10;59.90
15609;DHT22;64278;45.642;13.756;2023-03-24T00:31:26;23.10;59.90
15609;DHT22;64278;45.642;13.756;2023-03-24T00:33:52;23.10;59.90
15609;DHT22;64278;45.642;13.756;2023-03-24T00:36:20;23.10;59.90
15609;DHT22;64278;45.642;13.756;2023-03-24T00:38:47;23.10;60.00
15609;DHT22;64278;45.642;13.756;2023-03-24T00:41:14;23.10;60.00
15609;DHT22;64278;45.642;13.756;2023-03-24T00:43:45;23.10;60.00
15609;DHT22;64278;45.642;13.756;2023-03-24T00:46:13;23.10;60.00
15609;DHT22;64278;45.642;13.756;2023-03-24T00:48:52;23.10;60.00
15609;DHT22;64278;45.642;13.756;2023-03-24T00:51:22;23.10;60.10
15609;DHT22;64278;45.642;13.756;2023-03-24T00:53:48;23.10;60.10
15609;DHT22;64278;45.642;13.756;2023-03-24T00:56:14;23.00;60.10
15609;DHT22;64278;45.642;13.756;2023-03-24T00:58:39;23.10;60.20
15609;DHT22;64278;45.642;13.756;2023-03-24T01:01:05;23.00;60.20
15609;DHT22;64278;45.642;13.756;2023-03-24T01:03:31;23.00;60.10
15609;DHT22;64278;45.642;13.756;2023-03-24T01:06:02;23.00;60.20
15609;DHT22;64278;45.642;13.756;2023-03-24T01:08:27;23.00;60.20
15609;DHT22;64278;45.642;13.756;2023-03-24T01:10:54;23.00;60.20
15609;DHT22;64278;45.642;13.756;2023-03-24T01:13:22;23.00;60.20
15609;DHT22;64278;45.642;13.756;2023-03-24T01:15:48;23.00;60.20
15609;DHT22;64278;45.642;13.756;2023-03-24T01:18:15;23.00;60.10
15609;DHT22;64278;45.642;13.756;2023-03-24T01:20:43;23.00;60.00
15609;DHT22;64278;45.642;13.756;2023-03-24T01:23:15;23.00;59.90
15609;DHT22;64278;45.642;13.756;2023-03-24T01:25:43;23.00;59.80
15609;DHT22;64278;45.642;13.756;2023-03-24T01:28:15;23.00;59.70
15609;DHT22;64278;45.642;13.756;2023-03-24T01:30:42;22.90;59.60
15609;DHT22;64278;45.642;13.756;2023-03-24T01:33:08;22.90;59.50
15609;DHT22;64278;45.642;13.756;2023-03-24T01:35:34;22.90;59.50
15609;DHT22;64278;45.642;13.756;2023-03-24T01:38:04;22.90;59.50
15609;DHT22;64278;45.642;13.756;2023-03-24T01:40:32;22.90;59.50
15609;DHT22;64278;45.642;13.756;2023-03-24T01:42:59;22.90;59.50
15609;DHT22;64278;45.642;13.756;2023-03-24T01:45:55;22.90;59.60
15609;DHT22;64278;45.642;13.756;2023-03-24T01:48:36;22.90;59.70
15609;DHT22;64278;45.642;13.756;2023-03-24T01:53:33;22.90;59.80
15609;DHT22;64278;45.642;13.756;2023-03-24T01:56:01;22.90;59.70
15609;DHT22;64278;45.642;13.756;2023-03-24T01:58:29;22.90;59.60
15609;DHT22;64278;45.642;13.756;2023-03-24T02:00:56;22.80;59.60
15609;DHT22;64278;45.642;13.756;2023-03-24T02:03:24;22.90;59.70
15609;DHT22;64278;45.642;13.756;2023-03-24T02:05:52;22.90;59.80
15609;DHT22;64278;45.642;13.756;2023-03-24T02:11:03;22.80;59.90
15609;DHT22;64278;45.642;13.756;2023-03-24T02:13:29;22.90;60.00
15609;DHT22;64278;45.642;13.756;2023-03-24T02:30:37;22.80;60.20
15609;DHT22;64278;45.642;13.756;2023-03-24T02:33:25;22.80;60.30
15609;DHT22;64278;45.642;13.756;2023-03-24T02:41:49;22.80;60.30
15609;DHT22;64278;45.642;13.756;2023-03-24T02:44:29;22.80;60.40
15609;DHT22;64278;45.642;13.756;2023-03-24T02:49:47;22.80;60.50
15609;DHT22;64278;45.642;13.756;2023-03-24T02:55:14;22.80;60.50
15609;DHT22;64278;45.642;13.756;2023-03-24T02:57:55;22.70;60.50
15609;DHT22;64278;45.642;13.756;2023-03-24T03:00:35;22.80;60.60
15609;DHT22;64278;45.642;13.756;2023-03-24T03:03:24;22.70;60.50
15609;DHT22;64278;45.642;13.756;2023-03-24T03:05:58;22.70;60.60
15609;DHT22;64278;45.642;13.756;2023-03-24T03:08:29;22.70;60.60
15609;DHT22;64278;45.642;13.756;2023-03-24T03:10:58;22.70;60.60
15609;DHT22;64278;45.642;13.756;2023-03-24T03:13:51;22.70;60.60
15609;DHT22;64278;45.642;13.756;2023-03-24T03:18:48;22.70;60.70
15609;DHT22;64278;45.642;13.756;2023-03-24T03:21:19;22.70;60.70
15609;DHT22;64278;45.642;13.756;2023-03-24T03:23:57;22.70;60.70
15609;DHT22;64278;45.642;13.756;2023-03-24T03:26:25;22.70;60.70
15609;DHT22;64278;45.642;13.756;2023-03-24T03:28:56;22.70;60.70
15609;DHT22;64278;45.642;13.756;2023-03-24T03:31:32;22.70;60.70
15609;DHT22;64278;45.642;13.756;2023-03-24T03:34:35;22.70;60.70
15609;DHT22;64278;45.642;13.756;2023-03-24T03:40:12;22.70;60.60
15609;DHT22;64278;45.642;13.756;2023-03-24T03:42:39;22.70;60.50
15609;DHT22;64278;45.642;13.756;2023-03-24T03:45:07;22.70;60.40
15609;DHT22;64278;45.642;13.756;2023-03-24T03:47:34;22.70;60.30
15609;DHT22;64278;45.642;13.756;2023-03-24T03:50:02;22.70;60.40
15609;DHT22;64278;45.642;13.756;2023-03-24T03:52:27;22.60;60.20
15609;DHT22;64278;45.642;13.756;2023-03-24T03:54:55;22.70;60.20
15609;DHT22;64278;45.642;13.756;2023-03-24T03:57:22;22.70;60.20
15609;DHT22;64278;45.642;13.756;2023-03-24T03:59:48;22.60;60.20
15609;DHT22;64278;45.642;13.756;2023-03-24T04:15:54;22.60;60.30
15609;DHT22;64278;45.642;13.756;2023-03-24T04:18:43;22.60;60.20
15609;DHT22;64278;45.642;13.756;2023-03-24T04:26:34;22.60;59.80
15609;DHT22;64278;45.642;13.756;2023-03-24T04:29:34;22.60;59.80
15609;DHT22;64278;45.642;13.756;2023-03-24T04:38:10;22.60;59.90
15609;DHT22;64278;45.642;13.756;2023-03-24T04:40:39;22.60;60.10
15609;DHT22;64278;45.642;13.756;2023-03-24T04:43:12;22.60;60.10
15609;DHT22;64278;45.642;13.756;2023-03-24T04:45:42;22.50;60.10
15609;DHT22;64278;45.642;13.756;2023-03-24T04:48:16;22.60;60.20
15609;DHT22;64278;45.642;13.756;2023-03-24T04:50:46;22.50;60.10
15609;DHT22;64278;45.642;13.756;2023-03-24T04:53:14;22.60;60.30
15609;DHT22;64278;45.642;13.756;2023-03-24T04:58:15;22.60;60.30
15609;DHT22;64278;45.642;13.756;2023-03-24T05:00:41;22.50;60.20
15609;DHT22;64278;45.642;13.756;2023-03-24T05:03:12;22.50;60.20
15609;DHT22;64278;45.642;13.756;2023-03-24T05:05:42;22.50;60.20
15609;DHT22;64278;45.642;13.756;2023-03-24T05:08:08;22.50;60.20
15609;DHT22;64278;45.642;13.756;2023-03-24T05:10:35;22.50;60.10
15609;DHT22;64278;45.642;13.756;2023-03-24T05:13:02;22.50;60.20
15609;DHT22;64278;45.642;13.756;2023-03-24T05:15:29;22.50;60.20
15609;DHT22;64278;45.642;13.756;2023-03-24T05:17:54;22.50;60.20
15609;DHT22;64278;45.642;13.756;2023-03-24T05:20:21;22.50;60.20
15609;DHT22;64278;45.642;13.756;2023-03-24T05:22:47;22.50;60.20
15609;DHT22;64278;45.642;13.756;2023-03-24T05:25:14;22.50;60.20
15609;DHT22;64278;45.642;13.756;2023-03-24T05:27:41;22.50;60.20
15609;DHT22;64278;45.642;13.756;2023-03-24T05:30:07;22.50;60.20
15609;DHT22;64278;45.642;13.756;2023-03-24T05:32:33;22.50;60.20
15609;DHT22;64278;45.642;13.756;2023-03-24T05:34:59;22.50;60.20
15609;DHT22;64278;45.642;13.756;2023-03-24T05:37:25;22.50;60.20
15609;DHT22;64278;45.642;13.756;2023-03-24T05:39:52;22.50;60.10
15609;DHT22;64278;45.642;13.756;2023-03-24T05:42:18;22.50;60.10
15609;DHT22;64278;45.642;13.756;2023-03-24T05:44:44;22.50;60.10
15609;DHT22;64278;45.642;13.756;2023-03-24T05:47:11;22.50;60.00
15609;DHT22;64278;45.642;13.756;2023-03-24T05:49:42;22.50;60.00
15609;DHT22;64278;45.642;13.756;2023-03-24T05:52:09;22.50;60.00
15609;DHT22;64278;45.642;13.756;2023-03-24T05:54:35;22.50;60.00
15609;DHT22;64278;45.642;13.756;2023-03-24T05:57:01;22.50;60.00
15609;DHT22;64278;45.642;13.756;2023-03-24T05:59:28;22.50;59.90
15609;DHT22;64278;45.642;13.756;2023-03-24T06:01:54;22.40;59.70
15609;DHT22;64278;45.642;13.756;2023-03-24T06:04:23;22.50;59.60
15609;DHT22;64278;45.642;13.756;2023-03-24T06:06:48;22.50;59.50
15609;DHT22;64278;45.642;13.756;2023-03-24T06:09:15;22.50;59.50
15609;DHT22;64278;45.642;13.756;2023-03-24T06:11:44;22.40;59.40
15609;DHT22;64278;45.642;13.756;2023-03-24T06:14:10;22.40;59.40
15609;DHT22;64278;45.642;13.756;2023-03-24T06:16:36;22.40;59.50
15609;DHT22;64278;45.642;13.756;2023-03-24T06:19:05;22.40;59.60
15609;DHT22;64278;45.642;13.756;2023-03-24T06:21:32;22.40;60.50
15609;DHT22;64278;45.642;13.756;2023-03-24T06:23:58;22.50;59.90
15609;DHT22;64278;45.642;13.756;2023-03-24T06:26:24;22.50;59.90
15609;DHT22;64278;45.642;13.756;2023-03-24T06:28:49;22.50;59.90
15609;DHT22;64278;45.642;13.756;2023-03-24T06:31:19;22.50;59.80
15609;DHT22;64278;45.642;13.756;2023-03-24T06:33:49;22.50;59.80
15609;DHT22;64278;45.642;13.756;2023-03-24T06:36:15;22.40;59.80
15609;DHT22;64278;45.642;13.756;2023-03-24T06:38:42;22.40;59.80
15609;DHT22;64278;45.642;13.756;2023-03-24T06:41:08;22.40;59.90
15609;DHT22;64278;45.642;13.756;2023-03-24T06:43:34;22.40;60.00
15609;DHT22;64278;45.642;13.756;2023-03-24T06:46:00;22.40;60.00
15609;DHT22;64278;45.642;13.756;2023-03-24T06:48:26;22.40;60.00
15609;DHT22;64278;45.642;13.756;2023-03-24T06:50:52;22.40;60.00
15609;DHT22;64278;45.642;13.756;2023-03-24T06:53:18;22.40;60.00
15609;DHT22;64278;45.642;13.756;2023-03-24T06:55:47;22.40;60.00
15609;DHT22;64278;45.642;13.756;2023-03-24T06:58:13;22.40;59.90
15609;DHT22;64278;45.642;13.756;2023-03-24T07:00:40;22.40;59.90
15609;DHT22;64278;45.642;13.756;2023-03-24T07:03:06;22.40;59.80
15609;DHT22;64278;45.642;13.756;2023-03-24T07:05:37;22.40;59.80
15609;DHT22;64278;45.642;13.756;2023-03-24T07:08:03;22.40;59.70
15609;DHT22;64278;45.642;13.756;2023-03-24T07:10:29;22.40;59.60
15609;DHT22;64278;45.642;13.756;2023-03-24T07:12:55;22.40;59.60
15609;DHT22;64278;45.642;13.756;2023-03-24T07:15:20;22.40;59.60
15609;DHT22;64278;45.642;13.756;2023-03-24T07:17:46;22.40;59.60
15609;DHT22;64278;45.642;13.756;2023-03-24T07:20:12;22.40;59.50
15609;DHT22;64278;45.642;13.756;2023-03-24T07:22:38;22.40;59.30
15609;DHT22;64278;45.642;13.756;2023-03-24T07:25:04;22.40;59.20
15609;DHT22;64278;45.642;13.756;2023-03-24T07:27:31;22.40;59.10
15609;DHT22;64278;45.642;13.756;2023-03-24T07:30:00;22.30;58.90
15609;DHT22;64278;45.642;13.756;2023-03-24T07:32:28;22.30;58.80
15609;DHT22;64278;45.642;13.756;2023-03-24T07:34:54;22.30;58.70
15609;DHT22;64278;45.642;13.756;2023-03-24T07:37:20;22.40;58.60
15609;DHT22;64278;45.642;13.756;2023-03-24T07:39:46;22.30;58.40
15609;DHT22;64278;45.642;13.756;2023-03-24T07:42:12;22.40;58.40
15609;DHT22;64278;45.642;13.756;2023-03-24T07:44:38;22.30;58.30
15609;DHT22;64278;45.642;13.756;2023-03-24T07:47:03;22.30;58.30
15609;DHT22;64278;45.642;13.756;2023-03-24T07:49:29;22.30;58.60
15609;DHT22;64278;45.642;13.756;2023-03-24T07:51:55;22.30;58.20
15609;DHT22;64278;45.642;13.756;2023-03-24T07:54:23;22.30;58.10
15609;DHT22;64278;45.642;13.756;2023-03-24T07:56:49;22.30;58.10
15609;DHT22;64278;45.642;13.756;2023-03-24T07:59:15;22.30;58.10
15609;DHT22;64278;45.642;13.756;2023-03-24T08:01:42;22.30;58.10
15609;DHT22;64278;45.642;13.756;2023-03-24T08:04:10;22.30;58.00
15609;DHT22;64278;45.642;13.756;2023-03-24T08:06:37;22.30;58.00
15609;DHT22;64278;45.642;13.756;2023-03-24T08:09:03;22.30;58.00
15609;DHT22;64278;45.642;13.756;2023-03-24T08:11:29;22.30;58.00
15609;DHT22;64278;45.642;13.756;2023-03-24T08:13:54;22.30;58.10
15609;DHT22;64278;45.642;13.756;2023-03-24T08:16:20;22.30;58.20
15609;DHT22;64278;45.642;13.756;2023-03-24T08:18:46;22.30;58.10
15609;DHT22;64278;45.642;13.756;2023-03-24T08:21:13;22.30;58.20
15609;DHT22;64278;45.642;13.756;2023-03-24T08:23:39;22.30;58.00
15609;DHT22;64278;45.642;13.756;2023-03-24T08:26:05;22.30;57.70
15609;DHT22;64278;45.642;13.756;2023-03-24T08:28:31;22.20;51.80
15609;DHT22;64278;45.642;13.756;2023-03-24T08:30:57;22.10;51.80
15609;DHT22;64278;45.642;13.756;2023-03-24T08:33:23;22.00;51.70
15609;DHT22;64278;45.642;13.756;2023-03-24T08:35:48;21.90;51.50
15609;DHT22;64278;45.642;13.756;2023-03-24T08:38:15;21.90;52.50
15609;DHT22;64278;45.642;13.756;2023-03-24T08:40:41;21.80;53.30
15609;DHT22;64278;45.642;13.756;2023-03-24T08:43:09;21.90;53.80
15609;DHT22;64278;45.642;13.756;2023-03-24T08:45:37;21.80;53.70
15609;DHT22;64278;45.642;13.756;2023-03-24T08:48:04;21.80;53.60
15609;DHT22;64278;45.642;13.756;2023-03-24T08:50:33;21.80;53.60
15609;DHT22;64278;45.642;13.756;2023-03-24T08:53:00;21.80;53.60
15609;DHT22;64278;45.642;13.756;2023-03-24T08:55:26;21.80;53.60
15609;DHT22;64278;45.642;13.756;2023-03-24T08:57:53;21.80;53.60
15609;DHT22;64278;45.642;13.756;2023-03-24T09:00:19;21.80;53.60
15609;DHT22;64278;45.642;13.756;2023-03-24T09:02:50;21.70;53.80
15609;DHT22;64278;45.642;13.756;2023-03-24T09:05:20;21.70;54.00
15609;DHT22;64278;45.642;13.756;2023-03-24T09:07:47;21.80;54.20
15609;DHT22;64278;45.642;13.756;2023-03-24T09:10:15;21.70;54.10
15609;DHT22;64278;45.642;13.756;2023-03-24T09:12:41;21.70;54.00
15609;DHT22;64278;45.642;13.756;2023-03-24T09:15:09;21.70;54.00
15609;DHT22;64278;45.642;13.756;2023-03-24T09:17:35;21.70;54.10
15609;DHT22;64278;45.642;13.756;2023-03-24T09:20:02;21.70;53.90
15609;DHT22;64278;45.642;13.756;2023-03-24T09:22:31;21.60;53.70
15609;DHT22;64278;45.642;13.756;2023-03-24T09:24:57;21.60;53.60
15609;DHT22;64278;45.642;13.756;2023-03-24T09:27:23;21.60;53.60
15609;DHT22;64278;45.642;13.756;2023-03-24T09:29:48;21.60;53.70
15609;DHT22;64278;45.642;13.756;2023-03-24T09:32:14;21.50;53.70
15609;DHT22;64278;45.642;13.756;2023-03-24T09:34:40;21.50;53.50
15609;DHT22;64278;45.642;13.756;2023-03-24T09:37:05;21.50;53.40
15609;DHT22;64278;45.642;13.756;2023-03-24T09:39:34;21.50;53.10
15609;DHT22;64278;45.642;13.756;2023-03-24T09:42:00;21.50;53.00
15609;DHT22;64278;45.642;13.756;2023-03-24T09:44:33;21.40;52.80
15609;DHT22;64278;45.642;13.756;2023-03-24T09:49:50;21.40;52.90
15609;DHT22;64278;45.642;13.756;2023-03-24T09:52:22;21.40;53.10
15609;DHT22;64278;45.642;13.756;2023-03-24T09:54:56;21.40;53.30
15609;DHT22;64278;45.642;13.756;2023-03-24T09:59:57;21.50;53.70
15609;DHT22;64278;45.642;13.756;2023-03-24T10:02:22;21.50;54.20
15609;DHT22;64278;45.642;13.756;2023-03-24T10:04:48;21.60;54.90
15609;DHT22;64278;45.642;13.756;2023-03-24T10:09:59;21.60;56.00
15609;DHT22;64278;45.642;13.756;2023-03-24T10:12:35;21.70;56.30
15609;DHT22;64278;45.642;13.756;2023-03-24T10:17:58;21.70;57.00
15609;DHT22;64278;45.642;13.756;2023-03-24T10:20:50;21.80;57.20
15609;DHT22;64278;45.642;13.756;2023-03-24T10:29:01;21.80;56.40
15609;DHT22;64278;45.642;13.756;2023-03-24T10:31:31;21.80;56.50
15609;DHT22;64278;45.642;13.756;2023-03-24T10:33:58;21.80;56.70
15609;DHT22;64278;45.642;13.756;2023-03-24T10:36:25;21.80;56.80
15609;DHT22;64278;45.642;13.756;2023-03-24T10:38:52;21.80;56.90
15609;DHT22;64278;45.642;13.756;2023-03-24T10:41:23;21.80;56.90
15609;DHT22;64278;45.642;13.756;2023-03-24T10:43:50;21.90;57.00
15609;DHT22;64278;45.642;13.756;2023-03-24T10:46:21;21.90;56.90
15609;DHT22;64278;45.642;13.756;2023-03-24T10:48:50;21.90;56.80
15609;DHT22;64278;45.642;13.756;2023-03-24T10:51:26;21.90;56.80
15609;DHT22;64278;45.642;13.756;2023-03-24T10:54:11;21.90;57.50
15609;DHT22;64278;45.642;13.756;2023-03-24T10:56:41;21.90;56.90
15609;DHT22;64278;45.642;13.756;2023-03-24T11:01:45;21.90;56.60
15609;DHT22;64278;45.642;13.756;2023-03-24T11:04:14;21.90;56.50
15609;DHT22;64278;45.642;13.756;2023-03-24T11:07:02;21.90;56.40
15609;DHT22;64278;45.642;13.756;2023-03-24T11:09:36;21.90;56.30
15609;DHT22;64278;45.642;13.756;2023-03-24T11:12:03;21.90;56.30
15609;DHT22;64278;45.642;13.756;2023-03-24T11:14:29;21.80;56.30
15609;DHT22;64278;45.642;13.756;2023-03-24T11:17:12;21.80;56.20
15609;DHT22;64278;45.642;13.756;2023-03-24T11:19:51;21.80;56.30
15609;DHT22;64278;45.642;13.756;2023-03-24T11:22:17;21.80;56.40
15609;DHT22;64278;45.642;13.756;2023-03-24T11:24:48;21.80;56.40
15609;DHT22;64278;45.642;13.756;2023-03-24T11:27:15;21.80;56.30
15609;DHT22;64278;45.642;13.756;2023-03-24T11:29:43;21.80;56.30
15609;DHT22;64278;45.642;13.756;2023-03-24T11:32:20;21.80;56.20
15609;DHT22;64278;45.642;13.756;2023-03-24T11:34:48;21.80;56.20
15609;DHT22;64278;45.642;13.756;2023-03-24T11:37:19;21.80;56.10
15609;DHT22;64278;45.642;13.756;2023-03-24T11:42:46;21.80;56.10
15609;DHT22;64278;45.642;13.756;2023-03-24T11:45:38;21.80;56.10
15609;DHT22;64278;45.642;13.756;2023-03-24T11:48:23;21.80;56.10
15609;DHT22;64278;45.642;13.756;2023-03-24T11:50:50;21.80;56.10
15609;DHT22;64278;45.642;13.756;2023-03-24T11:53:20;21.80;56.20
15609;DHT22;64278;45.642;13.756;2023-03-24T11:56:06;21.80;56.20
15609;DHT22;64278;45.642;13.756;2023-03-24T11:58:48;21.80;56.20
15609;DHT22;64278;45.642;13.756;2023-03-24T12:09:51;21.80;56.10
15609;DHT22;64278;45.642;13.756;2023-03-24T12:12:48;21.70;56.10
15609;DHT22;64278;45.642;13.756;2023-03-24T12:18:37;21.70;56.10
15609;DHT22;64278;45.642;13.756;2023-03-24T12:21:10;21.70;56.10
15609;DHT22;64278;45.642;13.756;2023-03-24T12:24:31;21.70;56.20
15609;DHT22;64278;45.642;13.756;2023-03-24T12:26:36;21.70;56.20
15609;DHT22;64278;45.642;13.756;2023-03-24T12:32:18;21.80;56.20
15609;DHT22;64278;45.642;13.756;2023-03-24T12:40:57;21.70;56.50
15609;DHT22;64278;45.642;13.756;2023-03-24T12:43:51;21.70;56.50
15609;DHT22;64278;45.642;13.756;2023-03-24T12:46:48;21.60;56.60
15609;DHT22;64278;45.642;13.756;2023-03-24T12:49:26;21.70;56.70
15609;DHT22;64278;45.642;13.756;2023-03-24T12:54:54;21.60;56.80
15609;DHT22;64278;45.642;13.756;2023-03-24T12:57:55;21.70;56.80
15609;DHT22;64278;45.642;13.756;2023-03-24T13:00:33;21.60;56.80
15609;DHT22;64278;45.642;13.756;2023-03-24T13:03:05;21.60;56.90
15609;DHT22;64278;45.642;13.756;2023-03-24T13:05:42;21.60;56.90
15609;DHT22;64278;45.642;13.756;2023-03-24T13:08:18;21.60;56.90
15609;DHT22;64278;45.642;13.756;2023-03-24T13:10:49;21.60;57.00
15609;DHT22;64278;45.642;13.756;2023-03-24T13:13:28;21.60;57.00
15609;DHT22;64278;45.642;13.756;2023-03-24T13:16:14;21.60;57.00
15609;DHT22;64278;45.642;13.756;2023-03-24T13:18:50;21.60;57.00
15609;DHT22;64278;45.642;13.756;2023-03-24T13:21:18;21.60;57.10
15609;DHT22;64278;45.642;13.756;2023-03-24T13:23:52;21.60;57.10
15609;DHT22;64278;45.642;13.756;2023-03-24T13:26:36;21.60;57.10
15609;DHT22;64278;45.642;13.756;2023-03-24T13:31:46;21.60;57.00
15609;DHT22;64278;45.642;13.756;2023-03-24T13:37:13;21.60;57.00
15609;DHT22;64278;45.642;13.756;2023-03-24T13:39:43;21.60;57.00
15609;DHT22;64278;45.642;13.756;2023-03-24T13:42:31;21.60;57.00
15609;DHT22;64278;45.642;13.756;2023-03-24T13:45:03;21.70;57.00
15609;DHT22;64278;45.642;13.756;2023-03-24T13:47:51;21.70;57.00
15609;DHT22;64278;45.642;13.756;2023-03-24T13:50:19;21.70;57.00
15609;DHT22;64278;45.642;13.756;2023-03-24T13:52:48;21.70;57.00
15609;DHT22;64278;45.642;13.756;2023-03-24T13:55:20;21.70;57.00
15609;DHT22;64278;45.642;13.756;2023-03-24T13:58:05;21.70;57.10
15609;DHT22;64278;45.642;13.756;2023-03-24T14:06:58;21.70;57.20
15609;DHT22;64278;45.642;13.756;2023-03-24T14:09:28;21.70;57.10
15609;DHT22;64278;45.642;13.756;2023-03-24T14:14:25;21.70;57.10
15609;DHT22;64278;45.642;13.756;2023-03-24T14:17:05;21.70;57.10
15609;DHT22;64278;45.642;13.756;2023-03-24T14:22:34;21.70;57.20
15609;DHT22;64278;45.642;13.756;2023-03-24T14:27:47;21.70;57.20
15609;DHT22;64278;45.642;13.756;2023-03-24T14:30:23;21.70;57.20
15609;DHT22;64278;45.642;13.756;2023-03-24T14:32:52;21.60;57.10
15609;DHT22;64278;45.642;13.756;2023-03-24T14:40:40;21.60;57.10
15609;DHT22;64278;45.642;13.756;2023-03-24T14:43:26;21.60;57.20
15609;DHT22;64278;45.642;13.756;2023-03-24T14:45:58;21.60;57.20
15609;DHT22;64278;45.642;13.756;2023-03-24T14:49:33;21.60;57.10
15609;DHT22;64278;45.642;13.756;2023-03-24T14:51:55;21.70;57.20
15609;DHT22;64278;45.642;13.756;2023-03-24T14:57:18;21.70;57.30
15609;DHT22;64278;45.642;13.756;2023-03-24T15:02:34;21.70;57.30
15609;DHT22;64278;45.642;13.756;2023-03-24T15:07:51;21.70;57.40
15609;DHT22;64278;45.642;13.756;2023-03-24T15:10:22;21.70;57.40
15609;DHT22;64278;45.642;13.756;2023-03-24T15:12:48;21.60;57.30
15609;DHT22;64278;45.642;13.756;2023-03-24T15:15:15;21.60;57.40
15609;DHT22;64278;45.642;13.756;2023-03-24T15:17:42;21.60;57.30
15609;DHT22;64278;45.642;13.756;2023-03-24T15:20:24;21.60;57.40
15609;DHT22;64278;45.642;13.756;2023-03-24T15:22:51;21.60;57.40
15609;DHT22;64278;45.642;13.756;2023-03-24T15:25:27;21.60;57.40
15609;DHT22;64278;45.642;13.756;2023-03-24T15:27:54;21.60;57.40
15609;DHT22;64278;45.642;13.756;2023-03-24T15:30:21;21.60;57.40
15609;DHT22;64278;45.642;13.756;2023-03-24T15:32:47;21.60;57.40
15609;DHT22;64278;45.642;13.756;2023-03-24T15:35:21;21.60;57.40
15609;DHT22;64278;45.642;13.756;2023-03-24T15:37:55;21.60;57.40
15609;DHT22;64278;45.642;13.756;2023-03-24T15:43:13;21.60;57.40
15609;DHT22;64278;45.642;13.756;2023-03-24T15:45:45;21.60;57.40
15609;DHT22;64278;45.642;13.756;2023-03-24T15:48:19;21.60;58.00
15609;DHT22;64278;45.642;13.756;2023-03-24T15:50:58;21.60;57.40
15609;DHT22;64278;45.642;13.756;2023-03-24T15:53:30;21.60;57.50
15609;DHT22;64278;45.642;13.756;2023-03-24T15:56:13;21.60;57.50
15609;DHT22;64278;45.642;13.756;2023-03-24T15:58:47;21.60;57.50
15609;DHT22;64278;45.642;13.756;2023-03-24T16:01:17;21.60;57.60
15609;DHT22;64278;45.642;13.756;2023-03-24T16:03:44;21.60;57.50
15609;DHT22;64278;45.642;13.756;2023-03-24T16:06:14;21.60;57.60
15609;DHT22;64278;45.642;13.756;2023-03-24T16:08:42;21.60;57.60
15609;DHT22;64278;45.642;13.756;2023-03-24T16:11:08;21.60;57.60
15609;DHT22;64278;45.642;13.756;2023-03-24T16:13:42;21.60;57.70
15609;DHT22;64278;45.642;13.756;2023-03-24T16:18:43;21.60;57.70
15609;DHT22;64278;45.642;13.756;2023-03-24T16:23:42;21.60;57.70
15609;DHT22;64278;45.642;13.756;2023-03-24T16:26:16;21.60;57.70
15609;DHT22;64278;45.642;13.756;2023-03-24T16:28:43;21.60;57.70
15609;DHT22;64278;45.642;13.756;2023-03-24T16:31:23;21.60;57.70
15609;DHT22;64278;45.642;13.756;2023-03-24T16:33:51;21.60;57.70
15609;DHT22;64278;45.642;13.756;2023-03-24T16:36:17;21.60;57.80
15609;DHT22;64278;45.642;13.756;2023-03-24T16:38:46;21.60;57.70
15609;DHT22;64278;45.642;13.756;2023-03-24T16:41:13;21.60;57.80
15609;DHT22;64278;45.642;13.756;2023-03-24T16:43:40;21.60;57.80
15609;DHT22;64278;45.642;13.756;2023-03-24T16:46:14;21.60;57.90
15609;DHT22;64278;45.642;13.756;2023-03-24T16:48:41;21.60;57.90
15609;DHT22;64278;45.642;13.756;2023-03-24T16:51:12;21.60;57.90
15609;DHT22;64278;45.642;13.756;2023-03-24T16:53:38;21.60;57.90
15609;DHT22;64278;45.642;13.756;2023-03-24T16:56:04;21.60;58.00
15609;DHT22;64278;45.642;13.756;2023-03-24T16:58:30;21.60;57.90
15609;DHT22;64278;45.642;13.756;2023-03-24T17:00:56;21.60;57.90
15609;DHT22;64278;45.642;13.756;2023-03-24T17:03:25;21.60;57.90
15609;DHT22;64278;45.642;13.756;2023-03-24T17:05:55;21.60;57.90
15609;DHT22;64278;45.642;13.756;2023-03-24T17:08:21;21.70;57.90
15609;DHT22;64278;45.642;13.756;2023-03-24T17:10:48;21.70;57.80
15609;DHT22;64278;45.642;13.756;2023-03-24T17:13:23;21.70;57.80
15609;DHT22;64278;45.642;13.756;2023-03-24T17:15:50;21.70;57.80
15609;DHT22;64278;45.642;13.756;2023-03-24T17:18:17;21.60;57.70
15609;DHT22;64278;45.642;13.756;2023-03-24T17:20:42;21.70;57.80
15609;DHT22;64278;45.642;13.756;2023-03-24T17:23:10;21.70;57.70
15609;DHT22;64278;45.642;13.756;2023-03-24T17:25:37;21.70;57.70
15609;DHT22;64278;45.642;13.756;2023-03-24T17:28:03;21.70;57.70
15609;DHT22;64278;45.642;13.756;2023-03-24T17:30:30;21.70;57.70
15609;DHT22;64278;45.642;13.756;2023-03-24T17:32:56;21.70;57.70
15609;DHT22;64278;45.642;13.756;2023-03-24T17:35:22;21.70;57.80
15609;DHT22;64278;45.642;13.756;2023-03-24T17:37:49;21.70;57.90
15609;DHT22;64278;45.642;13.756;2023-03-24T17:40:17;21.70;57.90
15609;DHT22;64278;45.642;13.756;2023-03-24T17:42:44;21.70;58.00
15609;DHT22;64278;45.642;13.756;2023-03-24T17:45:14;21.70;58.00
15609;DHT22;64278;45.642;13.756;2023-03-24T17:47:40;21.70;58.00
15609;DHT22;64278;45.642;13.756;2023-03-24T17:50:06;21.70;58.00
15609;DHT22;64278;45.642;13.756;2023-03-24T17:52:46;21.70;58.00
15609;DHT22;64278;45.642;13.756;2023-03-24T17:55:13;21.70;58.10
15609;DHT22;64278;45.642;13.756;2023-03-24T17:57:39;21.70;58.00
15609;DHT22;64278;45.642;13.756;2023-03-24T18:00:07;21.70;58.00
15609;DHT22;64278;45.642;13.756;2023-03-24T18:02:40;21.70;58.00
15609;DHT22;64278;45.642;13.756;2023-03-24T18:05:07;21.70;58.10
15609;DHT22;64278;45.642;13.756;2023-03-24T18:07:33;21.70;58.00